Time;durP1;ratioP1;P1;durP2;ratioP2;P2;SDS_P1;SDS_P2;PMS_P1;PMS_P2;Temp;Humidity;BMP_temperature;BMP_pressure;BME280_temperature;BME280_humidity;BME280_pressure;Samples;Min_cycle;Max_cycle;Signal;HPM_P1;HPM_P2
2022/12/08 00:01:29;;;;;;;31.50;16.63;;;2.40;99.90;;;1.52;100.00;97351.22;5043064;28;20045;-72
2022/12/08 00:04:01;;;;;;;32.22;17.77;;;2.50;99.90;;;1.55;100.00;97353.75;5043732;28;20056;-72
2022/12/08 00:09:29;;;;;;;33.08;15.93;;;2.50;99.90;;;1.76;100.00;97350.13;5039749;28;20075;-72
2022/12/08 00:12:05;;;;;;;29.33;16.95;;;2.50;99.90;;;1.88;100.00;97332.91;5042640;28;20136;-72
2022/12/08 00:14:44;;;;;;;25.23;14.10;;;2.40;99.90;;;1.69;100.00;97336.56;5046710;28;20045;-71
2022/12/08 00:17:14;;;;;;;29.15;15.05;;;2.40;99.90;;;1.82;100.00;97330.41;5045994;28;20044;-72
2022/12/08 00:19:42;;;;;;;25.85;15.63;;;2.40;99.90;;;1.95;100.00;97326.00;5043617;28;20064;-72
2022/12/08 00:22:11;;;;;;;27.55;16.08;;;2.40;99.90;;;1.80;100.00;97326.16;5038725;28;20084;-72
2022/12/08 00:24:40;;;;;;;29.52;14.35;;;2.40;99.90;;;1.76;100.00;97322.81;5045695;28;20057;-72
2022/12/08 00:27:09;;;;;;;33.42;16.55;;;2.40;99.90;;;1.65;100.00;97315.25;5057072;28;20057;-72
2022/12/08 00:29:37;;;;;;;25.33;14.18;;;2.40;99.90;;;1.80;100.00;97315.94;5038320;28;20538;-72
2022/12/08 00:32:05;;;;;;;28.40;15.43;;;2.40;99.90;;;1.80;100.00;97306.56;5044482;28;20056;-72
2022/12/08 00:34:32;;;;;;;26.00;15.13;;;2.50;99.90;;;1.75;100.00;97304.91;5040691;28;20064;-71
2022/12/08 00:36:59;;;;;;;28.33;13.98;;;2.40;99.90;;;1.62;100.00;97305.06;5056228;28;20045;-71
2022/12/08 00:39:26;;;;;;;27.17;14.32;;;2.40;99.90;;;1.62;100.00;97296.53;5055499;28;20116;-72
2022/12/08 00:42:11;;;;;;;34.80;15.25;;;2.40;99.90;;;1.56;100.00;97302.56;5041277;28;20496;-71
2022/12/08 00:44:43;;;;;;;32.15;15.77;;;2.40;99.90;;;1.51;100.00;97309.47;5043951;28;20059;-71
2022/12/08 00:47:11;;;;;;;31.00;15.57;;;2.40;99.90;;;1.55;100.00;97306.00;5041710;28;20134;-71
2022/12/08 00:49:38;;;;;;;29.55;16.10;;;2.40;99.90;;;1.82;100.00;97299.69;5042745;28;20230;-71
2022/12/08 00:52:06;;;;;;;29.60;14.55;;;2.40;99.90;;;1.79;100.00;97306.56;5043968;28;20052;-72
2022/12/08 00:54:33;;;;;;;28.58;15.52;;;2.30;99.90;;;1.64;100.00;97300.78;5041866;28;20068;-71
2022/12/08 00:57:00;;;;;;;30.20;15.70;;;2.40;99.90;;;1.72;100.00;97302.41;5041640;28;20056;-71
2022/12/08 00:59:27;;;;;;;28.80;14.23;;;2.40;99.90;;;1.82;100.00;97286.91;5037469;28;20059;-71
2022/12/08 01:01:54;;;;;;;29.48;15.10;;;2.40;99.90;;;1.73;100.00;97297.25;5041425;28;20063;-71
2022/12/08 01:04:21;;;;;;;30.92;15.55;;;2.30;99.90;;;1.63;100.00;97295.69;5035964;28;20052;-71
2022/12/08 01:06:48;;;;;;;28.77;15.90;;;2.40;99.90;;;1.52;100.00;97298.34;5039787;28;20059;-71
2022/12/08 01:09:16;;;;;;;26.58;14.48;;;2.40;99.90;;;1.67;100.00;97298.19;5041893;28;20099;-72
2022/12/08 01:11:44;;;;;;;33.60;15.10;;;2.40;99.90;;;1.82;100.00;97294.56;5037649;28;20145;-71
2022/12/08 01:14:12;;;;;;;32.67;16.48;;;2.50;99.90;;;1.93;100.00;97291.06;5040368;28;20037;-71
2022/12/08 01:16:42;;;;;;;27.40;14.35;;;2.50;99.90;;;1.73;100.00;97298.97;5042985;28;20041;-71
2022/12/08 01:19:15;;;;;;;26.40;14.50;;;2.40;99.90;;;1.77;100.00;97288.69;5038338;28;20059;-72
2022/12/08 01:21:44;;;;;;;24.50;13.10;;;2.40;99.90;;;1.88;100.00;97288.56;5040047;28;20060;-71
2022/12/08 01:24:14;;;;;;;24.40;13.07;;;2.40;99.90;;;1.76;100.00;97293.84;5036218;28;20057;-71
2022/12/08 01:26:42;;;;;;;26.65;14.02;;;2.50;99.90;;;1.83;100.00;97287.75;5040150;28;20052;-71
2022/12/08 01:29:10;;;;;;;27.65;15.00;;;2.50;99.90;;;1.75;100.00;97289.56;5050935;28;20410;-71
2022/12/08 01:31:37;;;;;;;28.38;14.82;;;2.50;99.90;;;1.65;100.00;97288.84;5037958;28;20073;-71
2022/12/08 01:34:05;;;;;;;27.73;14.95;;;2.50;99.90;;;1.63;100.00;97276.06;5039839;28;20372;-72
2022/12/08 01:36:36;;;;;;;28.25;14.93;;;2.50;99.90;;;1.67;100.00;97280.28;5041972;28;20606;-71
2022/12/08 01:39:08;;;;;;;25.23;13.32;;;2.50;99.90;;;1.82;100.00;97271.53;5039832;28;20075;-72
2022/12/08 01:41:37;;;;;;;24.35;13.82;;;2.50;99.90;;;1.85;100.00;97270.69;5038269;28;20044;-72
2022/12/08 01:44:07;;;;;;;23.83;12.02;;;2.40;99.90;;;1.79;100.00;97281.81;5053585;28;20045;-72
2022/12/08 01:46:40;;;;;;;24.17;12.60;;;2.40;99.90;;;1.82;100.00;97263.03;5038019;28;20059;-72
2022/12/08 01:49:26;;;;;;;;;;;2.40;99.90;;;1.61;100.00;97279.50;5037536;28;20049;-72
2022/12/08 01:52:37;;;;;;;27.23;11.43;;;2.30;99.90;;;1.66;100.00;97265.75;5038589;28;19943;-71
2022/12/08 01:55:14;;;;;;;28.23;12.00;;;2.30;99.90;;;1.53;100.00;97261.69;5042016;28;20056;-72
2022/12/08 01:57:46;;;;;;;26.33;14.02;;;2.30;99.90;;;1.55;100.00;97251.41;5042651;28;20052;-72
2022/12/08 02:00:17;;;;;;;23.35;11.45;;;2.30;99.90;;;1.52;100.00;97254.03;5038934;28;20057;-72
2022/12/08 02:03:12;;;;;;;28.30;14.27;;;2.20;99.90;;;1.46;100.00;97249.84;5039141;28;20257;-72
2022/12/08 02:05:40;;;;;;;30.52;14.38;;;2.30;99.90;;;1.38;100.00;97238.84;5037034;28;20214;-71
2022/12/08 02:08:10;;;;;;;21.10;12.88;;;2.20;99.90;;;1.34;100.00;97245.69;5038682;28;20056;-71
2022/12/08 02:10:41;;;;;;;32.00;14.13;;;2.20;99.90;;;1.49;100.00;97249.78;5044529;28;20045;-72
2022/12/08 02:13:15;;;;;;;28.08;12.93;;;2.20;99.90;;;1.47;100.00;97236.19;5038909;28;20483;-72
2022/12/08 02:16:05;;;;;;;28.48;14.68;;;2.10;99.90;;;1.40;100.00;97252.47;5057819;28;20672;-72
2022/12/08 02:19:06;;;;;;;29.13;13.63;;;2.10;99.90;;;1.49;100.00;97244.69;5036241;28;20049;-72
2022/12/08 02:22:13;;;;;;;30.48;13.38;;;2.10;99.90;;;1.36;100.00;97249.06;5038968;28;20064;-71
2022/12/08 02:24:49;;;;;;;26.60;14.13;;;2.10;99.90;;;1.36;100.00;97243.97;5040327;28;20049;-71
2022/12/08 02:27:59;;;;;;;29.63;14.85;;;2.20;99.90;;;1.47;100.00;97241.28;5041084;28;20053;-72
2022/12/08 02:31:06;;;;;;;30.20;15.75;;;2.20;99.90;;;1.24;100.00;97242.41;5037142;28;20055;-72
2022/12/08 02:34:05;;;;;;;32.20;16.23;;;2.10;99.90;;;1.17;100.00;97243.34;5043417;28;20048;-72
2022/12/08 02:37:11;;;;;;;32.13;16.75;;;2.20;99.90;;;1.23;100.00;97244.97;5049573;28;20387;-72
2022/12/08 02:40:07;;;;;;;34.55;17.52;;;2.20;99.90;;;1.21;100.00;97245.00;5048286;28;20709;-73
2022/12/08 02:42:56;;;;;;;40.08;19.20;;;2.20;99.90;;;1.16;100.00;97249.28;5052905;28;20061;-72
2022/12/08 02:45:52;;;;;;;36.88;18.38;;;2.10;99.90;;;1.34;100.00;97235.47;5052127;28;20060;-71
2022/12/08 02:48:19;;;;;;;36.55;17.08;;;2.10;99.90;;;1.27;100.00;97238.13;5041858;28;20044;-71
2022/12/08 02:50:46;;;;;;;42.22;18.77;;;2.10;99.90;;;1.25;100.00;97239.00;5040869;28;20056;-72
2022/12/08 02:53:13;;;;;;;37.15;17.02;;;2.10;99.90;;;1.32;100.00;97226.13;5043906;28;20045;-72
2022/12/08 02:55:50;;;;;;;36.22;17.65;;;2.10;99.90;;;1.51;100.00;97227.59;5046150;28;20044;-72
2022/12/08 02:58:26;;;;;;;35.03;16.73;;;2.00;99.90;;;1.45;100.00;97228.50;5046066;28;20053;-72
2022/12/08 03:01:09;;;;;;;32.85;17.23;;;2.00;99.90;;;1.47;100.00;97220.81;5040156;28;20097;-71
2022/12/08 03:04:24;;;;;;;35.30;18.50;;;2.00;99.90;;;1.52;100.00;97220.78;5039718;28;20451;-72
2022/12/08 03:07:18;;;;;;;35.55;17.35;;;2.00;99.90;;;1.39;100.00;97217.50;5038103;28;20108;-71
2022/12/08 03:10:03;;;;;;;42.00;17.40;;;2.00;99.90;;;1.27;100.00;97204.88;5039133;28;20061;-72
2022/12/08 03:12:53;;;;;;;40.50;19.08;;;2.10;99.90;;;1.51;100.00;97208.88;5043635;28;20107;-72
2022/12/08 03:15:21;;;;;;;44.63;18.75;;;2.10;99.90;;;1.34;100.00;97206.50;5041585;28;20060;-72
2022/12/08 03:17:53;;;;;;;55.05;21.85;;;2.10;99.90;;;1.23;100.00;97201.50;5039180;28;20057;-72
2022/12/08 03:20:24;;;;;;;47.57;20.10;;;2.10;99.90;;;1.27;100.00;97207.44;5042025;28;20439;-72
2022/12/08 03:22:55;;;;;;;46.70;21.60;;;2.10;99.90;;;1.46;100.00;97207.19;5043708;28;20045;-72
2022/12/08 03:25:30;;;;;;;42.22;20.63;;;2.10;99.90;;;1.38;100.00;97201.31;5046138;28;20049;-72
2022/12/08 03:27:58;;;;;;;46.75;21.10;;;2.10;99.90;;;1.43;100.00;97201.28;5045234;28;20044;-72
2022/12/08 03:30:29;;;;;;;50.95;21.13;;;2.10;99.90;;;1.42;100.00;97197.88;5039067;28;20100;-72
2022/12/08 03:33:09;;;;;;;48.65;22.98;;;2.00;99.90;;;1.37;100.00;97194.53;5044210;28;20041;-71
2022/12/08 03:35:39;;;;;;;40.33;19.60;;;2.10;99.90;;;1.43;100.00;97188.47;5044662;28;20052;-72
2022/12/08 03:38:14;;;;;;;38.50;21.45;;;2.10;99.90;;;1.54;100.00;97186.63;5060105;28;20077;-71
2022/12/08 03:40:41;;;;;;;45.35;20.08;;;2.20;99.90;;;1.55;100.00;97185.78;5040247;28;20045;-72
2022/12/08 03:43:09;;;;;;;44.47;21.08;;;2.20;99.90;;;1.51;100.00;97178.16;5039759;28;20086;-71
2022/12/08 03:45:36;;;;;;;44.10;20.92;;;2.20;99.90;;;1.41;100.00;97178.25;5048673;28;20064;-71
2022/12/08 03:48:03;;;;;;;45.70;21.88;;;2.20;99.90;;;1.32;100.00;97182.66;5043350;28;20068;-71
2022/12/08 03:50:30;;;;;;;42.47;20.95;;;2.30;99.90;;;1.48;100.00;97167.97;5045376;28;20045;-71
2022/12/08 03:52:57;;;;;;;34.42;18.58;;;2.20;99.90;;;1.71;100.00;97172.75;5047617;28;20045;-72
2022/12/08 03:55:24;;;;;;;37.70;20.70;;;2.20;99.90;;;1.73;100.00;97171.03;5045703;28;20096;-72
2022/12/08 03:57:50;;;;;;;42.83;21.27;;;2.30;99.90;;;1.72;100.00;97162.50;5046721;28;20049;-72
2022/12/08 04:00:18;;;;;;;39.60;19.50;;;2.30;99.90;;;1.75;100.00;97157.34;5045057;28;20497;-72
2022/12/08 04:02:45;;;;;;;39.50;19.33;;;2.30;99.90;;;1.82;100.00;97153.81;5047700;28;20068;-72
2022/12/08 04:05:12;;;;;;;44.25;21.92;;;2.30;99.90;;;1.48;100.00;97156.00;5044681;28;20106;-71
2022/12/08 04:07:38;;;;;;;43.13;21.70;;;2.30;99.90;;;1.60;100.00;97149.91;5045885;28;20075;-72
2022/12/08 04:10:06;;;;;;;39.33;18.60;;;2.30;99.90;;;1.50;100.00;97148.31;5044053;28;20041;-71
2022/12/08 04:12:33;;;;;;;43.75;21.83;;;2.30;99.90;;;1.57;100.00;97144.81;5045407;28;20080;-71
2022/12/08 04:15:00;;;;;;;45.83;21.30;;;2.30;99.90;;;1.63;100.00;97144.75;5044266;28;20052;-72
2022/12/08 04:17:27;;;;;;;46.42;20.77;;;2.30;99.90;;;1.55;100.00;97146.53;5045801;28;20459;-71
2022/12/08 04:19:54;;;;;;;38.10;18.88;;;2.30;99.90;;;1.63;100.00;97140.47;5042931;28;20049;-72
2022/12/08 04:22:21;;;;;;;41.55;19.95;;;2.30;99.90;;;1.71;100.00;97137.81;5047129;28;20049;-71
2022/12/08 04:24:48;;;;;;;41.65;19.65;;;2.30;99.90;;;1.65;100.00;97138.72;5042376;28;20084;-72
2022/12/08 04:27:15;;;;;;;31.95;17.17;;;2.30;99.90;;;1.58;100.00;97133.72;5046555;28;20446;-71
2022/12/08 04:29:42;;;;;;;41.78;20.05;;;2.20;99.90;;;1.48;100.00;97133.00;5040130;28;20056;-71
2022/12/08 04:32:09;;;;;;;38.08;18.35;;;2.20;99.90;;;1.59;100.00;97126.03;5046032;28;20053;-71
2022/12/08 04:34:35;;;;;;;45.28;18.90;;;2.20;99.90;;;1.45;100.00;97127.94;5043930;28;20446;-71
2022/12/08 04:37:02;;;;;;;48.65;21.80;;;2.20;99.90;;;1.53;100.00;97123.56;5047267;28;20045;-72
2022/12/08 04:39:29;;;;;;;45.45;20.85;;;2.20;99.90;;;1.37;100.00;97117.81;5046000;28;20051;-71
2022/12/08 04:41:56;;;;;;;43.33;19.83;;;2.20;99.90;;;1.45;100.00;97117.69;5044724;28;20060;-72
2022/12/08 04:44:23;;;;;;;36.58;17.27;;;2.20;99.90;;;1.52;100.00;97124.41;5045359;28;20482;-71
2022/12/08 04:46:50;;;;;;;51.50;20.50;;;2.10;99.90;;;1.39;100.00;97134.00;5041654;28;20474;-72
2022/12/08 04:49:17;;;;;;;40.20;18.02;;;2.10;99.90;;;1.42;100.00;97126.25;5045441;28;20055;-71
2022/12/08 04:51:44;;;;;;;47.63;22.90;;;2.10;99.90;;;1.42;100.00;97125.44;5043507;28;20037;-71
2022/12/08 04:54:11;;;;;;;47.35;19.67;;;2.20;99.90;;;1.37;100.00;97127.19;5040602;28;20048;-71
2022/12/08 04:56:37;;;;;;;39.83;19.10;;;2.20;99.90;;;1.39;100.00;97128.00;5043681;28;20048;-71
2022/12/08 04:59:04;;;;;;;39.67;19.20;;;2.10;99.90;;;1.53;100.00;97121.00;5044079;28;20041;-71
2022/12/08 05:01:31;;;;;;;50.00;19.55;;;2.10;99.90;;;1.55;100.00;97126.09;5044085;28;20140;-71
2022/12/08 05:03:58;;;;;;;36.47;17.83;;;2.10;99.90;;;1.47;100.00;97128.75;5043814;28;20059;-72
2022/12/08 05:06:25;;;;;;;36.45;19.50;;;2.20;99.90;;;1.66;100.00;97131.88;5046324;28;20156;-71
2022/12/08 05:08:52;;;;;;;50.47;20.70;;;2.20;99.90;;;1.45;100.00;97130.50;5060911;28;20435;-72
2022/12/08 05:11:19;;;;;;;50.95;21.30;;;2.20;99.90;;;1.35;100.00;97122.09;5039522;28;20045;-71
2022/12/08 05:13:46;;;;;;;49.47;22.73;;;2.30;99.90;;;1.53;100.00;97125.25;5043074;28;20537;-71
2022/12/08 05:16:15;;;;;;;42.72;18.90;;;2.30;99.90;;;1.66;100.00;97124.22;5045681;28;20048;-71
2022/12/08 05:18:42;;;;;;;52.88;23.05;;;2.30;99.90;;;1.50;100.00;97123.59;5055711;28;20523;-72
2022/12/08 05:21:10;;;;;;;60.00;27.38;;;2.40;99.90;;;1.54;100.00;97122.69;5046323;28;20057;-72
2022/12/08 05:23:37;;;;;;;71.07;23.80;;;2.40;99.90;;;1.36;100.00;97116.09;5058963;28;20045;-72
2022/12/08 05:26:04;;;;;;;52.08;22.20;;;2.40;99.90;;;1.49;100.00;97103.16;5043107;28;20060;-71
2022/12/08 05:28:32;;;;;;;43.60;20.52;;;2.30;99.90;;;1.63;100.00;97107.19;5047290;28;20053;-72
2022/12/08 05:31:11;;;;;;;72.85;23.27;;;2.30;99.90;;;1.49;100.00;97110.84;5051331;28;20076;-71
2022/12/08 05:33:38;;;;;;;61.97;23.98;;;2.20;99.90;;;1.41;100.00;97104.09;5043084;28;20060;-72
2022/12/08 05:36:07;;;;;;;53.97;21.27;;;2.20;99.90;;;1.65;100.00;97108.03;5057246;28;20066;-72
2022/12/08 05:38:34;;;;;;;66.43;21.80;;;2.20;99.90;;;1.51;100.00;97101.44;5043565;28;20063;-72
2022/12/08 05:41:01;;;;;;;53.80;21.27;;;2.10;99.90;;;1.42;100.00;97105.81;5045380;28;20061;-71
2022/12/08 05:43:28;;;;;;;57.10;21.20;;;2.10;99.90;;;1.47;100.00;97103.19;5043339;28;20044;-71
2022/12/08 05:45:54;;;;;;;63.80;23.33;;;2.10;99.90;;;1.54;100.00;97099.66;5036629;28;20057;-72
2022/12/08 05:48:21;;;;;;;60.90;22.52;;;2.10;99.90;;;1.47;100.00;97105.75;5042160;28;20053;-71
2022/12/08 05:50:50;;;;;;;43.25;19.48;;;2.20;99.90;;;1.54;100.00;97099.66;5043837;28;20047;-71
2022/12/08 05:53:19;;;;;;;42.08;17.50;;;2.20;99.90;;;1.53;100.00;97095.44;5045386;28;20048;-72
2022/12/08 05:55:47;;;;;;;38.97;17.98;;;2.10;99.90;;;1.61;100.00;97111.50;5040048;28;20041;-71
2022/12/08 05:58:17;;;;;;;52.10;20.42;;;2.10;99.90;;;1.62;100.00;97105.53;5036244;28;20048;-72
2022/12/08 06:00:45;;;;;;;66.22;25.48;;;2.10;99.90;;;1.42;100.00;97107.53;5039154;28;20051;-72
2022/12/08 06:03:15;;;;;;;74.65;23.60;;;2.20;99.90;;;1.35;100.00;97103.38;5039627;28;20067;-72
2022/12/08 06:05:44;;;;;;;54.28;20.38;;;2.10;99.90;;;1.37;100.00;97099.03;5041747;28;20083;-71
2022/12/08 06:08:11;;;;;;;47.33;21.35;;;2.10;99.90;;;1.51;100.00;97099.72;5043223;28;20048;-71
2022/12/08 06:10:41;;;;;;;51.08;19.73;;;2.10;99.90;;;1.53;100.00;97100.53;5039087;28;20049;-72
2022/12/08 06:13:08;;;;;;;44.92;17.85;;;2.10;99.90;;;1.47;100.00;97100.63;5056108;28;20123;-71
2022/12/08 06:15:37;;;;;;;38.67;18.02;;;2.10;99.90;;;1.67;100.00;97098.63;5043887;28;20056;-72
2022/12/08 06:18:05;;;;;;;42.08;18.17;;;2.10;99.90;;;1.50;100.00;97103.13;5044869;28;20058;-71
2022/12/08 06:20:33;;;;;;;47.65;20.50;;;2.10;99.90;;;1.44;100.00;97100.69;5055976;28;20052;-71
2022/12/08 06:23:00;;;;;;;40.17;18.70;;;2.10;99.90;;;1.61;100.00;97097.88;5042313;28;20072;-71
2022/12/08 06:25:27;;;;;;;32.72;16.08;;;2.20;99.90;;;1.46;100.00;97104.06;5045071;28;20091;-72
2022/12/08 06:27:53;;;;;;;40.45;18.42;;;2.20;99.90;;;1.42;100.00;97103.25;5043267;28;20052;-71
2022/12/08 06:30:20;;;;;;;38.08;17.50;;;2.20;99.90;;;1.52;100.00;97093.72;5045091;28;20049;-72
2022/12/08 06:32:47;;;;;;;49.70;21.23;;;2.20;99.90;;;1.54;100.00;97092.00;5036380;28;20589;-72
2022/12/08 06:35:14;;;;;;;46.22;18.95;;;2.20;99.90;;;1.50;100.00;97097.19;5043934;28;21697;-71
2022/12/08 06:37:41;;;;;;;40.60;16.58;;;2.20;99.90;;;1.51;100.00;97102.28;5042744;28;20041;-72
2022/12/08 06:40:08;;;;;;;37.75;16.58;;;2.20;99.90;;;1.62;100.00;97095.28;5042740;28;20052;-71
2022/12/08 06:42:45;;;;;;;35.90;18.00;;;2.20;99.90;;;1.77;100.00;97098.47;5042442;28;20124;-72
2022/12/08 06:45:15;;;;;;;30.52;15.63;;;2.10;99.90;;;1.64;100.00;97095.25;5043328;28;20080;-72
2022/12/08 06:47:43;;;;;;;32.92;15.55;;;2.10;99.90;;;1.61;100.00;97088.47;5057298;28;20494;-72
2022/12/08 06:50:12;;;;;;;36.30;16.83;;;2.10;99.90;;;1.78;100.00;97090.78;5058640;28;20075;-71
2022/12/08 06:52:41;;;;;;;30.67;14.98;;;2.10;99.90;;;1.68;100.00;97089.22;5056346;28;20057;-71
2022/12/08 06:55:21;;;;;;;31.20;14.70;;;2.10;99.90;;;1.59;100.00;97089.38;5041525;28;20045;-72
2022/12/08 06:58:08;;;;;;;29.45;14.18;;;2.20;99.90;;;1.65;100.00;97092.69;5041697;28;20556;-72
2022/12/08 07:00:35;;;;;;;30.05;14.85;;;2.20;99.90;;;1.47;100.00;97095.50;5040785;28;20426;-72
2022/12/08 07:03:02;;;;;;;33.83;15.38;;;2.20;99.90;;;1.61;100.00;97095.31;5043772;28;20136;-71
2022/12/08 07:05:29;;;;;;;37.17;17.45;;;2.30;99.90;;;1.48;100.00;97091.22;5045549;28;20056;-72
2022/12/08 07:07:56;;;;;;;29.85;14.32;;;2.30;99.90;;;1.54;100.00;97089.44;5043849;28;20048;-71
2022/12/08 07:10:23;;;;;;;28.58;15.55;;;2.30;99.90;;;1.65;100.00;97092.69;5043492;28;20457;-72
2022/12/08 07:12:50;;;;;;;25.50;14.00;;;2.20;99.90;;;1.71;100.00;97096.88;5041091;28;20052;-73
2022/12/08 07:15:17;;;;;;;29.65;14.85;;;2.20;99.90;;;1.42;100.00;97097.28;5042219;28;20055;-72
2022/12/08 07:17:45;;;;;;;39.38;23.40;;;2.20;99.90;;;1.46;100.00;97092.13;5038849;28;20368;-72
2022/12/08 07:20:13;;;;;;;37.47;21.27;;;2.20;99.90;;;1.53;100.00;97094.56;5044450;28;20490;-72
2022/12/08 07:22:40;;;;;;;33.95;19.02;;;2.20;99.90;;;1.63;100.00;97089.28;5046305;28;20458;-71
2022/12/08 07:25:08;;;;;;;36.67;17.85;;;2.20;99.90;;;1.37;100.00;97089.69;5047401;28;20050;-71
2022/12/08 07:27:35;;;;;;;35.35;16.98;;;2.10;99.90;;;1.38;100.00;97093.09;5043310;28;20203;-71
2022/12/08 07:30:02;;;;;;;33.33;16.85;;;2.10;99.90;;;1.42;100.00;97095.56;5047138;28;20782;-72
2022/12/08 07:32:29;;;;;;;28.92;15.30;;;2.10;99.90;;;1.44;100.00;97090.44;5060614;28;20049;-72
2022/12/08 07:34:56;;;;;;;30.60;16.48;;;2.10;99.90;;;1.40;100.00;97093.91;5045566;28;20052;-71
2022/12/08 07:37:23;;;;;;;26.00;13.38;;;2.20;99.90;;;1.63;100.00;97078.22;5041883;28;20049;-72
2022/12/08 07:39:50;;;;;;;26.73;14.10;;;2.20;99.90;;;1.40;100.00;97089.63;5040955;28;20509;-71
2022/12/08 07:42:17;;;;;;;27.30;14.85;;;2.10;99.90;;;1.51;100.00;97084.38;5047422;28;20041;-74
2022/12/08 07:44:44;;;;;;;28.60;15.07;;;2.10;99.90;;;1.44;100.00;97081.06;5041323;28;20059;-71
2022/12/08 07:47:11;;;;;;;26.75;13.73;;;2.10;99.90;;;1.50;100.00;97084.38;5053307;28;20112;-72
2022/12/08 07:49:37;;;;;;;23.88;13.65;;;2.10;99.90;;;1.52;100.00;97080.94;5058245;28;20079;-72
2022/12/08 07:52:04;;;;;;;26.05;14.95;;;2.10;99.90;;;1.34;100.00;97089.72;5059934;28;20139;-72
2022/12/08 07:54:31;;;;;;;36.20;18.98;;;2.10;99.90;;;1.22;100.00;97088.16;5062208;28;20045;-72
2022/12/08 07:56:58;;;;;;;26.60;14.50;;;2.10;99.90;;;1.49;100.00;97082.72;5046765;28;20091;-72
2022/12/08 07:59:25;;;;;;;21.75;12.95;;;2.20;99.90;;;1.57;100.00;97075.75;5043846;28;20049;-72
2022/12/08 08:01:52;;;;;;;22.25;12.98;;;2.20;99.90;;;1.58;100.00;97077.47;5038514;28;20515;-71
2022/12/08 08:04:39;;;;;;;24.83;13.00;;;2.20;99.90;;;1.67;100.00;97080.72;5056880;28;20507;-71
2022/12/08 08:07:06;;;;;;;21.27;12.50;;;2.20;99.90;;;1.62;100.00;97074.81;5043954;28;20106;-71
2022/12/08 08:09:33;;;;;;;23.60;13.65;;;2.20;99.90;;;1.39;100.00;97075.16;5044624;28;20077;-72
2022/12/08 08:12:00;;;;;;;28.10;13.32;;;2.20;99.90;;;1.28;100.00;97077.03;5043946;28;20399;-72
2022/12/08 08:14:47;;;;;;;25.80;14.20;;;2.20;99.90;;;1.56;100.00;97077.47;5043861;28;20090;-72
2022/12/08 08:17:14;;;;;;;26.40;14.63;;;2.20;99.90;;;1.24;100.00;97083.03;5042569;28;20497;-71
2022/12/08 08:19:41;;;;;;;21.60;12.02;;;2.20;99.90;;;1.45;100.00;97084.44;5042958;28;20067;-72
2022/12/08 08:22:08;;;;;;;27.17;14.88;;;2.20;99.90;;;1.38;100.00;97081.13;5045454;28;20052;-72
2022/12/08 08:24:35;;;;;;;30.17;14.88;;;2.20;99.90;;;1.38;100.00;97087.97;5046351;28;20052;-71
2022/12/08 08:27:08;;;;;;;30.08;15.80;;;2.20;99.90;;;1.51;100.00;97083.53;5044954;28;20057;-71
2022/12/08 08:29:36;;;;;;;25.90;14.10;;;2.20;99.90;;;1.56;100.00;97086.88;5042829;28;20192;-72
2022/12/08 08:32:03;;;;;;;27.75;15.88;;;2.20;99.90;;;1.67;100.00;97074.75;5045570;28;20060;-71
2022/12/08 08:34:30;;;;;;;25.73;13.75;;;2.30;99.90;;;1.88;100.00;97076.13;5044936;28;20045;-72
2022/12/08 08:36:57;;;;;;;28.27;15.23;;;2.40;99.90;;;1.73;100.00;97087.44;5044977;28;20050;-71
2022/12/08 08:39:24;;;;;;;27.48;14.70;;;2.40;99.90;;;1.85;100.00;97089.81;5046201;28;20045;-72
2022/12/08 08:41:51;;;;;;;28.90;16.90;;;2.40;99.90;;;1.71;100.00;97090.88;5044689;28;20053;-71
2022/12/08 08:44:18;;;;;;;29.70;17.02;;;2.40;99.90;;;1.61;100.00;97085.91;5042158;28;20409;-72
2022/12/08 08:46:45;;;;;;;31.15;18.55;;;2.40;99.90;;;1.78;100.00;97083.13;5046426;28;20067;-71
2022/12/08 08:49:12;;;;;;;29.42;16.73;;;2.50;99.90;;;1.64;100.00;97074.78;5040129;28;20055;-71
2022/12/08 08:51:39;;;;;;;34.55;19.58;;;2.50;99.90;;;1.75;100.00;97067.78;5045752;28;20139;-71
2022/12/08 08:54:06;;;;;;;31.15;19.02;;;2.60;99.90;;;1.74;100.00;97085.75;5045217;28;20055;-71
2022/12/08 08:56:33;;;;;;;35.63;19.55;;;2.60;99.90;;;1.73;100.00;97077.19;5043040;28;20423;-72
2022/12/08 08:59:01;;;;;;;33.78;18.30;;;2.60;99.90;;;1.73;100.00;97066.13;5042486;28;20435;-72
2022/12/08 09:01:29;;;;;;;39.75;21.35;;;2.60;99.90;;;1.71;100.00;97071.28;5043817;28;20467;-71
2022/12/08 09:03:57;;;;;;;32.13;18.50;;;2.60;99.90;;;1.65;100.00;97069.66;5042413;28;20205;-71
2022/12/08 09:06:26;;;;;;;35.33;19.88;;;2.60;99.90;;;1.64;100.00;97074.78;5044145;28;20071;-71
2022/12/08 09:08:54;;;;;;;37.25;17.95;;;2.60;99.90;;;1.50;100.00;97066.47;5044170;28;20128;-71
2022/12/08 09:11:22;;;;;;;30.98;18.08;;;2.50;99.90;;;1.64;100.00;97062.00;5041770;28;20132;-71
2022/12/08 09:13:51;;;;;;;32.15;17.90;;;2.50;99.90;;;1.71;100.00;97071.28;5039603;28;20064;-71
2022/12/08 09:16:19;;;;;;;34.67;18.85;;;2.40;99.90;;;1.63;100.00;97061.16;5043272;28;20498;-71
2022/12/08 09:18:50;;;;;;;30.02;16.92;;;2.50;99.90;;;1.83;100.00;97060.00;5042328;28;20854;-71
2022/12/08 09:21:23;;;;;;;28.83;17.38;;;2.50;99.90;;;1.68;100.00;97061.91;5042816;28;20151;-71
2022/12/08 09:23:56;;;;;;;32.63;17.95;;;2.60;99.90;;;2.07;100.00;97059.56;5042416;28;20100;-72
2022/12/08 09:26:25;;;;;;;33.00;18.05;;;2.70;99.90;;;1.67;100.00;97056.84;5041843;28;20055;-71
2022/12/08 09:28:54;;;;;;;29.15;18.00;;;2.70;99.90;;;1.85;100.00;97050.59;5053131;28;20130;-72
2022/12/08 09:31:22;;;;;;;34.53;18.42;;;2.70;99.90;;;1.81;100.00;97057.47;5044830;28;20084;-71
2022/12/08 09:33:52;;;;;;;29.75;18.05;;;2.70;99.90;;;1.90;100.00;97047.97;5044759;28;20049;-71
2022/12/08 09:36:20;;;;;;;29.55;17.08;;;2.70;99.90;;;2.11;100.00;97052.69;5044012;28;20049;-73
2022/12/08 09:38:47;;;;;;;32.45;17.70;;;2.70;99.90;;;1.79;100.00;97048.97;5041083;28;20052;-70
2022/12/08 09:41:32;;;;;;;28.20;16.60;;;2.70;99.90;;;1.96;100.00;97041.03;5042324;28;20053;-70
2022/12/08 09:44:32;;;;;;;29.23;16.27;;;2.70;99.90;;;1.86;100.00;97045.44;5034277;28;20403;-71
2022/12/08 09:47:00;;;;;;;27.98;16.42;;;2.70;99.90;;;1.92;100.00;97041.94;5043240;28;20311;-71
2022/12/08 09:49:45;;;;;;;28.38;15.73;;;2.70;99.90;;;2.11;100.00;97037.34;5058771;28;20045;-74
2022/12/08 09:52:28;;;;;;;30.25;17.05;;;2.80;99.90;;;2.09;100.00;97028.84;5040574;28;20048;-73
2022/12/08 09:55:02;;;;;;;21.00;13.77;;;2.80;99.90;;;2.06;100.00;97021.22;5042678;28;20498;-71
2022/12/08 09:57:30;;;;;;;25.58;14.35;;;2.80;99.90;;;2.43;100.00;97016.25;5040692;28;20303;-73
2022/12/08 10:00:05;;;;;;;27.17;16.42;;;2.90;99.90;;;2.15;100.00;97009.97;5037886;28;20041;-73
2022/12/08 10:02:33;;;;;;;27.85;16.58;;;3.00;99.90;;;2.01;100.00;97011.06;5033635;28;20481;-73
2022/12/08 10:05:00;;;;;;;28.50;16.83;;;3.00;99.90;;;1.92;100.00;97006.13;5031827;28;20056;-73
2022/12/08 10:08:06;;;;;;;22.70;14.65;;;3.00;99.90;;;1.99;100.00;97005.13;5029281;28;20053;-73
2022/12/08 10:10:44;;;;;;;29.92;16.48;;;3.00;99.90;;;1.93;100.00;96994.16;4979132;28;20117;-71
2022/12/08 10:13:23;;;;;;;25.13;17.00;;;3.00;99.90;;;2.29;100.00;96995.19;5032359;28;20053;-74
2022/12/08 10:16:08;;;;;;;27.63;16.23;;;3.10;99.90;;;2.51;100.00;96986.22;5042211;28;20070;-70
2022/12/08 10:18:39;;;;;;;26.98;16.15;;;3.20;99.90;;;2.14;100.00;96983.50;5044879;28;20075;-74
2022/12/08 10:21:18;;;;;;;24.42;15.75;;;3.30;99.90;;;2.39;100.00;96983.03;5040971;28;20060;-71
2022/12/08 10:23:50;;;;;;;24.77;15.15;;;3.30;99.90;;;2.10;100.00;96981.91;5044823;28;20065;-73
2022/12/08 10:26:20;;;;;;;23.60;13.17;;;3.30;99.90;;;2.40;100.00;96967.66;5040713;28;20059;-72
2022/12/08 10:28:47;;;;;;;26.98;15.38;;;3.30;99.90;;;2.33;100.00;96973.78;5037398;28;20060;-72
2022/12/08 10:31:21;;;;;;;27.02;16.25;;;3.40;99.90;;;2.24;100.00;96961.16;5040034;28;20783;-70
2022/12/08 10:34:00;;;;;;;22.00;14.70;;;3.40;99.90;;;2.47;100.00;96969.22;5058469;28;20870;-70